sensor_id;sensor_type;location;lat;lon;timestamp;temperature;humidity
11840;DHT22;5979;50.800;4.904;2023-03-26T00:01:30;9.40;99.90
11840;DHT22;5979;50.800;4.904;2023-03-26T00:03:58;9.40;99.90
11840;DHT22;5979;50.800;4.904;2023-03-26T00:06:26;9.50;99.90
11840;DHT22;5979;50.800;4.904;2023-03-26T00:08:54;9.50;99.90
11840;DHT22;5979;50.800;4.904;2023-03-26T00:11:23;9.60;99.90
11840;DHT22;5979;50.800;4.904;2023-03-26T00:13:49;9.60;99.90
11840;DHT22;5979;50.800;4.904;2023-03-26T00:16:18;9.60;99.90
11840;DHT22;5979;50.800;4.904;2023-03-26T00:18:44;9.70;99.90
11840;DHT22;5979;50.800;4.904;2023-03-26T00:21:19;9.70;99.90
11840;DHT22;5979;50.800;4.904;2023-03-26T00:23:46;9.70;99.90
11840;DHT22;5979;50.800;4.904;2023-03-26T00:26:14;9.70;99.90
11840;DHT22;5979;50.800;4.904;2023-03-26T00:28:42;9.70;99.90
11840;DHT22;5979;50.800;4.904;2023-03-26T00:31:11;9.60;99.90
11840;DHT22;5979;50.800;4.904;2023-03-26T00:33:38;9.60;99.90
11840;DHT22;5979;50.800;4.904;2023-03-26T00:36:07;9.60;99.90
11840;DHT22;5979;50.800;4.904;2023-03-26T00:38:39;9.60;99.90
11840;DHT22;5979;50.800;4.904;2023-03-26T00:41:10;9.60;99.90
11840;DHT22;5979;50.800;4.904;2023-03-26T00:43:48;9.60;99.90
11840;DHT22;5979;50.800;4.904;2023-03-26T00:46:16;9.60;99.90
11840;DHT22;5979;50.800;4.904;2023-03-26T00:48:43;9.60;99.90
11840;DHT22;5979;50.800;4.904;2023-03-26T00:51:10;9.60;99.90
11840;DHT22;5979;50.800;4.904;2023-03-26T00:53:37;9.60;99.90
11840;DHT22;5979;50.800;4.904;2023-03-26T00:56:04;9.60;99.90
11840;DHT22;5979;50.800;4.904;2023-03-26T00:58:31;9.60;99.90
11840;DHT22;5979;50.800;4.904;2023-03-26T01:01:00;9.60;99.90
11840;DHT22;5979;50.800;4.904;2023-03-26T01:03:29;9.60;99.90
11840;DHT22;5979;50.800;4.904;2023-03-26T01:06:10;9.60;99.90
11840;DHT22;5979;50.800;4.904;2023-03-26T01:11:10;9.60;99.90
11840;DHT22;5979;50.800;4.904;2023-03-26T01:13:43;9.60;99.90
11840;DHT22;5979;50.800;4.904;2023-03-26T01:16:36;9.60;99.90
11840;DHT22;5979;50.800;4.904;2023-03-26T01:19:08;9.60;99.90
11840;DHT22;5979;50.800;4.904;2023-03-26T01:21:37;9.60;99.90
11840;DHT22;5979;50.800;4.904;2023-03-26T01:24:05;9.60;99.90
11840;DHT22;5979;50.800;4.904;2023-03-26T01:26:43;9.60;99.90
11840;DHT22;5979;50.800;4.904;2023-03-26T01:29:30;9.60;99.90
11840;DHT22;5979;50.800;4.904;2023-03-26T01:32:12;9.60;99.90
11840;DHT22;5979;50.800;4.904;2023-03-26T01:34:52;9.60;99.90
11840;DHT22;5979;50.800;4.904;2023-03-26T01:40:17;9.60;99.90
11840;DHT22;5979;50.800;4.904;2023-03-26T01:42:55;9.60;99.90
11840;DHT22;5979;50.800;4.904;2023-03-26T01:45:27;9.50;99.90
11840;DHT22;5979;50.800;4.904;2023-03-26T01:47:55;9.50;99.90
11840;DHT22;5979;50.800;4.904;2023-03-26T01:50:21;9.50;99.90
11840;DHT22;5979;50.800;4.904;2023-03-26T01:52:46;9.50;99.90
11840;DHT22;5979;50.800;4.904;2023-03-26T01:55:13;9.50;99.90
11840;DHT22;5979;50.800;4.904;2023-03-26T02:00:31;9.50;99.90
11840;DHT22;5979;50.800;4.904;2023-03-26T02:06:13;9.50;99.90
11840;DHT22;5979;50.800;4.904;2023-03-26T02:08:46;9.40;99.90
11840;DHT22;5979;50.800;4.904;2023-03-26T02:11:16;9.40;99.90
11840;DHT22;5979;50.800;4.904;2023-03-26T02:13:44;9.40;99.90
11840;DHT22;5979;50.800;4.904;2023-03-26T02:16:12;9.40;99.90
11840;DHT22;5979;50.800;4.904;2023-03-26T02:18:39;9.50;99.90
11840;DHT22;5979;50.800;4.904;2023-03-26T02:21:12;9.50;99.90
11840;DHT22;5979;50.800;4.904;2023-03-26T02:23:42;9.40;99.90
11840;DHT22;5979;50.800;4.904;2023-03-26T02:26:12;9.40;99.90
11840;DHT22;5979;50.800;4.904;2023-03-26T02:28:39;9.40;99.90
11840;DHT22;5979;50.800;4.904;2023-03-26T02:31:05;9.40;99.90
11840;DHT22;5979;50.800;4.904;2023-03-26T02:33:34;9.40;99.90
11840;DHT22;5979;50.800;4.904;2023-03-26T02:36:00;9.30;99.90
11840;DHT22;5979;50.800;4.904;2023-03-26T02:38:30;9.30;99.90
11840;DHT22;5979;50.800;4.904;2023-03-26T02:40:58;9.30;99.90
11840;DHT22;5979;50.800;4.904;2023-03-26T02:43:24;9.30;99.90
11840;DHT22;5979;50.800;4.904;2023-03-26T02:45:50;9.20;99.90
11840;DHT22;5979;50.800;4.904;2023-03-26T02:48:16;9.20;99.90
11840;DHT22;5979;50.800;4.904;2023-03-26T02:50:42;9.20;99.90
11840;DHT22;5979;50.800;4.904;2023-03-26T02:53:08;9.20;99.90
11840;DHT22;5979;50.800;4.904;2023-03-26T02:55:34;9.20;99.90
11840;DHT22;5979;50.800;4.904;2023-03-26T02:58:00;9.20;99.90
11840;DHT22;5979;50.800;4.904;2023-03-26T03:00:25;9.20;99.90
11840;DHT22;5979;50.800;4.904;2023-03-26T03:02:52;9.20;99.90
11840;DHT22;5979;50.800;4.904;2023-03-26T03:05:18;9.20;99.90
11840;DHT22;5979;50.800;4.904;2023-03-26T03:07:45;9.20;99.90
11840;DHT22;5979;50.800;4.904;2023-03-26T03:10:12;9.10;99.90
11840;DHT22;5979;50.800;4.904;2023-03-26T03:12:40;9.20;99.90
11840;DHT22;5979;50.800;4.904;2023-03-26T03:15:06;9.20;99.90
11840;DHT22;5979;50.800;4.904;2023-03-26T03:17:32;9.20;99.90
11840;DHT22;5979;50.800;4.904;2023-03-26T03:19:58;9.20;99.90
11840;DHT22;5979;50.800;4.904;2023-03-26T03:22:24;9.20;99.90
11840;DHT22;5979;50.800;4.904;2023-03-26T03:24:50;9.20;99.90
11840;DHT22;5979;50.800;4.904;2023-03-26T03:27:22;9.20;99.90
11840;DHT22;5979;50.800;4.904;2023-03-26T03:29:51;9.20;99.90
11840;DHT22;5979;50.800;4.904;2023-03-26T03:32:21;9.20;99.90
11840;DHT22;5979;50.800;4.904;2023-03-26T03:34:48;9.20;99.90
11840;DHT22;5979;50.800;4.904;2023-03-26T03:37:16;9.20;99.90
11840;DHT22;5979;50.800;4.904;2023-03-26T03:39:41;9.20;99.90
11840;DHT22;5979;50.800;4.904;2023-03-26T03:42:07;9.30;99.90
11840;DHT22;5979;50.800;4.904;2023-03-26T03:44:33;9.30;99.90
11840;DHT22;5979;50.800;4.904;2023-03-26T03:46:58;9.30;99.90
11840;DHT22;5979;50.800;4.904;2023-03-26T03:49:24;9.20;99.90
11840;DHT22;5979;50.800;4.904;2023-03-26T03:51:50;9.10;99.90
11840;DHT22;5979;50.800;4.904;2023-03-26T03:54:15;9.10;99.90
11840;DHT22;5979;50.800;4.904;2023-03-26T03:56:41;9.10;99.90
11840;DHT22;5979;50.800;4.904;2023-03-26T03:59:06;9.10;99.90
11840;DHT22;5979;50.800;4.904;2023-03-26T04:01:33;9.10;99.90
11840;DHT22;5979;50.800;4.904;2023-03-26T04:03:59;9.10;99.90
11840;DHT22;5979;50.800;4.904;2023-03-26T04:06:25;9.10;99.90
11840;DHT22;5979;50.800;4.904;2023-03-26T04:08:57;9.10;99.90
11840;DHT22;5979;50.800;4.904;2023-03-26T04:11:22;9.00;99.90
11840;DHT22;5979;50.800;4.904;2023-03-26T04:13:48;9.10;99.90
11840;DHT22;5979;50.800;4.904;2023-03-26T04:16:14;9.00;99.90
11840;DHT22;5979;50.800;4.904;2023-03-26T04:18:42;9.00;99.90
11840;DHT22;5979;50.800;4.904;2023-03-26T04:21:10;9.10;99.90
11840;DHT22;5979;50.800;4.904;2023-03-26T04:23:37;9.10;99.90
11840;DHT22;5979;50.800;4.904;2023-03-26T04:26:06;9.10;99.90
11840;DHT22;5979;50.800;4.904;2023-03-26T04:28:39;9.10;99.90
11840;DHT22;5979;50.800;4.904;2023-03-26T04:31:13;9.10;99.90
11840;DHT22;5979;50.800;4.904;2023-03-26T04:33:45;9.20;99.90
11840;DHT22;5979;50.800;4.904;2023-03-26T04:36:13;9.20;99.90
11840;DHT22;5979;50.800;4.904;2023-03-26T04:38:43;9.20;99.90
11840;DHT22;5979;50.800;4.904;2023-03-26T04:41:12;9.20;99.90
11840;DHT22;5979;50.800;4.904;2023-03-26T04:43:38;9.20;99.90
11840;DHT22;5979;50.800;4.904;2023-03-26T04:46:17;9.20;99.90
11840;DHT22;5979;50.800;4.904;2023-03-26T04:48:46;9.20;99.90
11840;DHT22;5979;50.800;4.904;2023-03-26T04:51:13;9.20;99.90
11840;DHT22;5979;50.800;4.904;2023-03-26T04:53:57;9.30;99.90
11840;DHT22;5979;50.800;4.904;2023-03-26T04:59:11;9.30;99.90
11840;DHT22;5979;50.800;4.904;2023-03-26T05:01:38;9.30;99.90
11840;DHT22;5979;50.800;4.904;2023-03-26T05:04:04;9.30;99.90
11840;DHT22;5979;50.800;4.904;2023-03-26T05:06:30;9.30;99.90
11840;DHT22;5979;50.800;4.904;2023-03-26T05:08:59;9.30;99.90
11840;DHT22;5979;50.800;4.904;2023-03-26T05:11:26;9.30;99.90
11840;DHT22;5979;50.800;4.904;2023-03-26T05:13:52;9.30;99.90
11840;DHT22;5979;50.800;4.904;2023-03-26T05:16:18;9.30;99.90
11840;DHT22;5979;50.800;4.904;2023-03-26T05:18:44;9.30;99.90
11840;DHT22;5979;50.800;4.904;2023-03-26T05:21:10;9.30;99.90
11840;DHT22;5979;50.800;4.904;2023-03-26T05:23:36;9.30;99.90
11840;DHT22;5979;50.800;4.904;2023-03-26T05:26:02;9.30;99.90
11840;DHT22;5979;50.800;4.904;2023-03-26T05:28:27;9.30;99.90
11840;DHT22;5979;50.800;4.904;2023-03-26T05:30:53;9.30;99.90
11840;DHT22;5979;50.800;4.904;2023-03-26T05:33:19;9.30;99.90
11840;DHT22;5979;50.800;4.904;2023-03-26T05:35:45;9.30;99.90
11840;DHT22;5979;50.800;4.904;2023-03-26T05:38:11;9.30;99.90
11840;DHT22;5979;50.800;4.904;2023-03-26T05:40:37;9.30;99.90
11840;DHT22;5979;50.800;4.904;2023-03-26T05:43:03;9.30;99.90
11840;DHT22;5979;50.800;4.904;2023-03-26T05:45:29;9.30;99.90
11840;DHT22;5979;50.800;4.904;2023-03-26T05:47:54;9.30;99.90
11840;DHT22;5979;50.800;4.904;2023-03-26T05:50:21;9.30;99.90
11840;DHT22;5979;50.800;4.904;2023-03-26T05:52:46;9.30;99.90
11840;DHT22;5979;50.800;4.904;2023-03-26T05:55:12;9.30;99.90
11840;DHT22;5979;50.800;4.904;2023-03-26T05:57:38;9.30;99.90
11840;DHT22;5979;50.800;4.904;2023-03-26T06:00:05;9.30;99.90
11840;DHT22;5979;50.800;4.904;2023-03-26T06:02:33;9.20;99.90
11840;DHT22;5979;50.800;4.904;2023-03-26T06:04:59;9.20;99.90
11840;DHT22;5979;50.800;4.904;2023-03-26T06:07:25;9.20;99.90
11840;DHT22;5979;50.800;4.904;2023-03-26T06:09:51;9.20;99.90
11840;DHT22;5979;50.800;4.904;2023-03-26T06:12:17;9.20;99.90
11840;DHT22;5979;50.800;4.904;2023-03-26T06:14:43;9.20;99.90
11840;DHT22;5979;50.800;4.904;2023-03-26T06:17:10;9.20;99.90
11840;DHT22;5979;50.800;4.904;2023-03-26T06:19:36;9.10;99.90
11840;DHT22;5979;50.800;4.904;2023-03-26T06:22:01;8.90;99.90
11840;DHT22;5979;50.800;4.904;2023-03-26T06:24:27;8.80;99.90
11840;DHT22;5979;50.800;4.904;2023-03-26T06:26:53;8.80;99.90
11840;DHT22;5979;50.800;4.904;2023-03-26T06:29:19;8.80;99.90
11840;DHT22;5979;50.800;4.904;2023-03-26T06:31:44;8.80;99.90
11840;DHT22;5979;50.800;4.904;2023-03-26T06:34:10;8.80;99.90
11840;DHT22;5979;50.800;4.904;2023-03-26T06:36:36;8.80;99.90
11840;DHT22;5979;50.800;4.904;2023-03-26T06:39:02;8.70;99.90
11840;DHT22;5979;50.800;4.904;2023-03-26T06:41:28;8.70;99.90
11840;DHT22;5979;50.800;4.904;2023-03-26T06:43:54;8.80;99.90
11840;DHT22;5979;50.800;4.904;2023-03-26T06:46:20;8.70;99.90
11840;DHT22;5979;50.800;4.904;2023-03-26T06:48:48;8.70;99.90
11840;DHT22;5979;50.800;4.904;2023-03-26T06:51:13;8.70;99.90
11840;DHT22;5979;50.800;4.904;2023-03-26T06:53:40;8.60;99.90
11840;DHT22;5979;50.800;4.904;2023-03-26T06:56:06;8.50;99.90
11840;DHT22;5979;50.800;4.904;2023-03-26T06:58:31;8.50;99.90
11840;DHT22;5979;50.800;4.904;2023-03-26T07:00:57;8.40;99.90
11840;DHT22;5979;50.800;4.904;2023-03-26T07:03:23;8.30;99.90
11840;DHT22;5979;50.800;4.904;2023-03-26T07:05:48;8.20;99.90
11840;DHT22;5979;50.800;4.904;2023-03-26T07:08:14;8.20;99.90
11840;DHT22;5979;50.800;4.904;2023-03-26T07:10:41;8.20;99.90
11840;DHT22;5979;50.800;4.904;2023-03-26T07:13:07;8.20;99.90
11840;DHT22;5979;50.800;4.904;2023-03-26T07:15:32;8.10;99.90
11840;DHT22;5979;50.800;4.904;2023-03-26T07:17:58;8.00;99.90
11840;DHT22;5979;50.800;4.904;2023-03-26T07:20:24;8.00;99.90
11840;DHT22;5979;50.800;4.904;2023-03-26T07:22:50;7.90;99.90
11840;DHT22;5979;50.800;4.904;2023-03-26T07:25:17;7.90;99.90
11840;DHT22;5979;50.800;4.904;2023-03-26T07:30:58;7.90;99.90
11840;DHT22;5979;50.800;4.904;2023-03-26T07:38:43;7.90;99.90
11840;DHT22;5979;50.800;4.904;2023-03-26T07:41:22;7.90;99.90
11840;DHT22;5979;50.800;4.904;2023-03-26T07:44:11;7.90;99.90
11840;DHT22;5979;50.800;4.904;2023-03-26T07:46:42;7.90;99.90
11840;DHT22;5979;50.800;4.904;2023-03-26T07:49:10;7.80;99.90
11840;DHT22;5979;50.800;4.904;2023-03-26T07:51:37;7.80;99.90
11840;DHT22;5979;50.800;4.904;2023-03-26T07:54:03;7.80;99.90
11840;DHT22;5979;50.800;4.904;2023-03-26T07:56:41;7.90;99.90
11840;DHT22;5979;50.800;4.904;2023-03-26T08:00:09;7.90;99.90
11840;DHT22;5979;50.800;4.904;2023-03-26T08:08:01;7.90;99.90
11840;DHT22;5979;50.800;4.904;2023-03-26T08:13:21;7.80;99.90
11840;DHT22;5979;50.800;4.904;2023-03-26T08:16:27;7.90;99.90
11840;DHT22;5979;50.800;4.904;2023-03-26T08:21:27;7.80;99.90
11840;DHT22;5979;50.800;4.904;2023-03-26T08:27:02;7.90;99.90
11840;DHT22;5979;50.800;4.904;2023-03-26T08:32:19;7.90;99.90
11840;DHT22;5979;50.800;4.904;2023-03-26T08:34:45;7.90;99.90
11840;DHT22;5979;50.800;4.904;2023-03-26T08:37:11;8.00;99.90
11840;DHT22;5979;50.800;4.904;2023-03-26T08:39:37;8.00;99.90
11840;DHT22;5979;50.800;4.904;2023-03-26T08:48:14;8.10;99.90
11840;DHT22;5979;50.800;4.904;2023-03-26T08:56:44;8.10;99.90
11840;DHT22;5979;50.800;4.904;2023-03-26T09:04:50;8.10;99.90
11840;DHT22;5979;50.800;4.904;2023-03-26T09:13:12;8.10;99.90
11840;DHT22;5979;50.800;4.904;2023-03-26T09:18:45;8.20;99.90
11840;DHT22;5979;50.800;4.904;2023-03-26T09:24:16;8.20;99.90
11840;DHT22;5979;50.800;4.904;2023-03-26T09:32:54;8.20;99.90
11840;DHT22;5979;50.800;4.904;2023-03-26T09:35:56;8.30;99.90
11840;DHT22;5979;50.800;4.904;2023-03-26T09:38:50;8.30;99.90
11840;DHT22;5979;50.800;4.904;2023-03-26T09:44:07;8.30;99.90
11840;DHT22;5979;50.800;4.904;2023-03-26T09:49:49;8.30;99.90
11840;DHT22;5979;50.800;4.904;2023-03-26T10:16:33;8.70;99.90
11840;DHT22;5979;50.800;4.904;2023-03-26T10:19:22;8.80;99.90
11840;DHT22;5979;50.800;4.904;2023-03-26T10:32:56;8.80;99.90
11840;DHT22;5979;50.800;4.904;2023-03-26T10:35:51;8.70;99.90
11840;DHT22;5979;50.800;4.904;2023-03-26T10:41:32;8.80;99.90
11840;DHT22;5979;50.800;4.904;2023-03-26T10:52:36;8.80;99.90
11840;DHT22;5979;50.800;4.904;2023-03-26T10:55:27;8.80;99.90
11840;DHT22;5979;50.800;4.904;2023-03-26T11:00:43;9.00;99.90
11840;DHT22;5979;50.800;4.904;2023-03-26T11:03:59;9.00;99.90
11840;DHT22;5979;50.800;4.904;2023-03-26T11:06:18;9.00;99.90
11840;DHT22;5979;50.800;4.904;2023-03-26T11:22:59;9.10;99.90
11840;DHT22;5979;50.800;4.904;2023-03-26T11:25:45;9.10;99.90
11840;DHT22;5979;50.800;4.904;2023-03-26T11:31:22;9.00;99.90
11840;DHT22;5979;50.800;4.904;2023-03-26T11:33:55;9.10;99.90
11840;DHT22;5979;50.800;4.904;2023-03-26T11:36:28;8.90;99.90
11840;DHT22;5979;50.800;4.904;2023-03-26T11:38:57;8.90;99.90
11840;DHT22;5979;50.800;4.904;2023-03-26T11:41:28;8.90;99.90
11840;DHT22;5979;50.800;4.904;2023-03-26T11:44:04;9.00;99.90
11840;DHT22;5979;50.800;4.904;2023-03-26T11:46:43;8.80;99.90
11840;DHT22;5979;50.800;4.904;2023-03-26T11:49:12;8.80;99.90
11840;DHT22;5979;50.800;4.904;2023-03-26T11:51:41;8.70;99.90
11840;DHT22;5979;50.800;4.904;2023-03-26T11:54:10;8.80;99.90
11840;DHT22;5979;50.800;4.904;2023-03-26T11:56:47;8.80;99.90
11840;DHT22;5979;50.800;4.904;2023-03-26T11:59:19;8.90;99.90
11840;DHT22;5979;50.800;4.904;2023-03-26T12:04:40;8.80;99.90
11840;DHT22;5979;50.800;4.904;2023-03-26T12:07:28;8.70;99.90
11840;DHT22;5979;50.800;4.904;2023-03-26T12:09:58;8.80;99.90
11840;DHT22;5979;50.800;4.904;2023-03-26T12:12:28;8.90;99.90
11840;DHT22;5979;50.800;4.904;2023-03-26T12:14:54;8.90;99.90
11840;DHT22;5979;50.800;4.904;2023-03-26T12:17:32;9.00;99.90
11840;DHT22;5979;50.800;4.904;2023-03-26T12:19:58;9.00;99.90
11840;DHT22;5979;50.800;4.904;2023-03-26T12:22:38;9.10;99.90
11840;DHT22;5979;50.800;4.904;2023-03-26T12:25:22;9.10;99.90
11840;DHT22;5979;50.800;4.904;2023-03-26T12:30:31;9.10;99.90
11840;DHT22;5979;50.800;4.904;2023-03-26T12:33:05;9.10;99.90
11840;DHT22;5979;50.800;4.904;2023-03-26T12:35:33;9.00;99.90
11840;DHT22;5979;50.800;4.904;2023-03-26T12:40:47;9.00;99.90
11840;DHT22;5979;50.800;4.904;2023-03-26T12:43:34;8.90;99.90
11840;DHT22;5979;50.800;4.904;2023-03-26T12:46:01;8.80;99.90
11840;DHT22;5979;50.800;4.904;2023-03-26T12:48:27;8.70;99.90
11840;DHT22;5979;50.800;4.904;2023-03-26T12:51:07;8.70;99.90
11840;DHT22;5979;50.800;4.904;2023-03-26T12:56:38;8.60;99.90
11840;DHT22;5979;50.800;4.904;2023-03-26T13:02:13;8.60;99.90
11840;DHT22;5979;50.800;4.904;2023-03-26T13:05:13;8.60;99.90
11840;DHT22;5979;50.800;4.904;2023-03-26T13:11:21;8.60;99.90
11840;DHT22;5979;50.800;4.904;2023-03-26T13:14:01;8.70;99.90
11840;DHT22;5979;50.800;4.904;2023-03-26T13:16:51;8.70;99.90
11840;DHT22;5979;50.800;4.904;2023-03-26T13:19:21;8.80;99.90
11840;DHT22;5979;50.800;4.904;2023-03-26T13:22:13;8.90;99.90
11840;DHT22;5979;50.800;4.904;2023-03-26T13:38:10;8.80;99.90
11840;DHT22;5979;50.800;4.904;2023-03-26T13:51:34;9.00;99.90
11840;DHT22;5979;50.800;4.904;2023-03-26T13:54:48;9.10;99.90
11840;DHT22;5979;50.800;4.904;2023-03-26T13:56:53;9.10;99.90
11840;DHT22;5979;50.800;4.904;2023-03-26T14:02:27;9.10;99.90
11840;DHT22;5979;50.800;4.904;2023-03-26T14:05:08;9.10;99.90
11840;DHT22;5979;50.800;4.904;2023-03-26T14:07:45;9.00;99.90
11840;DHT22;5979;50.800;4.904;2023-03-26T14:10:24;9.00;99.90
11840;DHT22;5979;50.800;4.904;2023-03-26T14:15:41;8.90;99.90
11840;DHT22;5979;50.800;4.904;2023-03-26T14:23:53;8.90;99.90
11840;DHT22;5979;50.800;4.904;2023-03-26T14:26:53;9.00;99.90
11840;DHT22;5979;50.800;4.904;2023-03-26T14:44:20;9.30;99.90
11840;DHT22;5979;50.800;4.904;2023-03-26T14:54:30;9.30;99.90
11840;DHT22;5979;50.800;4.904;2023-03-26T15:29:09;9.00;99.90
11840;DHT22;5979;50.800;4.904;2023-03-26T15:50:44;8.90;99.90
11840;DHT22;5979;50.800;4.904;2023-03-26T15:53:38;9.00;99.90
11840;DHT22;5979;50.800;4.904;2023-03-26T15:56:24;9.00;99.90
11840;DHT22;5979;50.800;4.904;2023-03-26T16:01:46;9.00;99.90
11840;DHT22;5979;50.800;4.904;2023-03-26T16:04:16;9.00;99.90
11840;DHT22;5979;50.800;4.904;2023-03-26T16:06:59;9.00;99.90
11840;DHT22;5979;50.800;4.904;2023-03-26T16:10:09;9.00;99.90
11840;DHT22;5979;50.800;4.904;2023-03-26T16:15:31;8.90;99.90
11840;DHT22;5979;50.800;4.904;2023-03-26T16:23:02;8.80;99.90
11840;DHT22;5979;50.800;4.904;2023-03-26T16:25:32;8.80;99.90
11840;DHT22;5979;50.800;4.904;2023-03-26T16:28:26;8.80;99.90
11840;DHT22;5979;50.800;4.904;2023-03-26T16:31:22;8.80;99.90
11840;DHT22;5979;50.800;4.904;2023-03-26T16:41:31;8.60;99.90
11840;DHT22;5979;50.800;4.904;2023-03-26T16:44:15;8.50;99.90
11840;DHT22;5979;50.800;4.904;2023-03-26T16:47:02;8.50;99.90
11840;DHT22;5979;50.800;4.904;2023-03-26T16:49:59;8.50;99.90
11840;DHT22;5979;50.800;4.904;2023-03-26T16:58:20;8.30;99.90
11840;DHT22;5979;50.800;4.904;2023-03-26T17:01:07;8.30;99.90
11840;DHT22;5979;50.800;4.904;2023-03-26T17:03:49;8.30;99.90
11840;DHT22;5979;50.800;4.904;2023-03-26T17:06:39;8.30;99.90
11840;DHT22;5979;50.800;4.904;2023-03-26T17:09:38;8.30;99.90
11840;DHT22;5979;50.800;4.904;2023-03-26T17:20:23;8.20;99.90
11840;DHT22;5979;50.800;4.904;2023-03-26T17:26:15;8.10;99.90
11840;DHT22;5979;50.800;4.904;2023-03-26T17:31:47;8.20;99.90
11840;DHT22;5979;50.800;4.904;2023-03-26T17:37:29;8.20;99.90
11840;DHT22;5979;50.800;4.904;2023-03-26T17:42:37;8.20;99.90
11840;DHT22;5979;50.800;4.904;2023-03-26T17:45:19;8.20;99.90
11840;DHT22;5979;50.800;4.904;2023-03-26T17:47:57;8.20;99.90
11840;DHT22;5979;50.800;4.904;2023-03-26T17:50:33;8.10;99.90
11840;DHT22;5979;50.800;4.904;2023-03-26T17:53:18;8.10;99.90
11840;DHT22;5979;50.800;4.904;2023-03-26T17:55:46;8.10;99.90
11840;DHT22;5979;50.800;4.904;2023-03-26T17:58:34;8.10;99.90
11840;DHT22;5979;50.800;4.904;2023-03-26T18:03:52;8.10;99.90
11840;DHT22;5979;50.800;4.904;2023-03-26T18:09:21;8.10;99.90
11840;DHT22;5979;50.800;4.904;2023-03-26T18:12:02;8.00;99.90
11840;DHT22;5979;50.800;4.904;2023-03-26T18:17:08;8.00;99.90
11840;DHT22;5979;50.800;4.904;2023-03-26T18:19:51;8.00;99.90
11840;DHT22;5979;50.800;4.904;2023-03-26T18:22:21;7.90;99.90
11840;DHT22;5979;50.800;4.904;2023-03-26T18:24:48;7.90;99.90
11840;DHT22;5979;50.800;4.904;2023-03-26T18:27:20;7.90;99.90
11840;DHT22;5979;50.800;4.904;2023-03-26T18:32:25;7.80;99.90
11840;DHT22;5979;50.800;4.904;2023-03-26T18:35:00;7.80;99.90
11840;DHT22;5979;50.800;4.904;2023-03-26T18:37:30;7.70;99.90
11840;DHT22;5979;50.800;4.904;2023-03-26T18:42:40;7.70;99.90
11840;DHT22;5979;50.800;4.904;2023-03-26T18:48:00;7.70;99.90
11840;DHT22;5979;50.800;4.904;2023-03-26T18:50:29;7.60;99.90
11840;DHT22;5979;50.800;4.904;2023-03-26T18:52:59;7.60;99.90
11840;DHT22;5979;50.800;4.904;2023-03-26T18:55:29;7.60;99.90
11840;DHT22;5979;50.800;4.904;2023-03-26T18:57:56;7.60;99.90
11840;DHT22;5979;50.800;4.904;2023-03-26T19:00:26;7.50;99.90
11840;DHT22;5979;50.800;4.904;2023-03-26T19:03:06;7.50;99.90
11840;DHT22;5979;50.800;4.904;2023-03-26T19:05:33;7.50;99.90
11840;DHT22;5979;50.800;4.904;2023-03-26T19:08:02;7.50;99.90
11840;DHT22;5979;50.800;4.904;2023-03-26T19:10:28;7.50;99.90
11840;DHT22;5979;50.800;4.904;2023-03-26T19:12:56;7.40;99.90
11840;DHT22;5979;50.800;4.904;2023-03-26T19:15:24;7.40;99.90
11840;DHT22;5979;50.800;4.904;2023-03-26T19:17:53;7.40;99.90
11840;DHT22;5979;50.800;4.904;2023-03-26T19:20:27;7.40;99.90
11840;DHT22;5979;50.800;4.904;2023-03-26T19:22:53;7.30;99.90
11840;DHT22;5979;50.800;4.904;2023-03-26T19:25:32;7.30;99.90
11840;DHT22;5979;50.800;4.904;2023-03-26T19:28:01;7.30;99.90
11840;DHT22;5979;50.800;4.904;2023-03-26T19:30:32;7.30;99.90
11840;DHT22;5979;50.800;4.904;2023-03-26T19:33:13;7.30;99.90
11840;DHT22;5979;50.800;4.904;2023-03-26T19:35:40;7.30;99.90
11840;DHT22;5979;50.800;4.904;2023-03-26T19:38:24;7.30;99.90
11840;DHT22;5979;50.800;4.904;2023-03-26T19:40:53;7.20;99.90
11840;DHT22;5979;50.800;4.904;2023-03-26T19:43:20;7.20;99.90
11840;DHT22;5979;50.800;4.904;2023-03-26T19:45:48;7.20;99.90
11840;DHT22;5979;50.800;4.904;2023-03-26T19:48:18;7.20;99.90
11840;DHT22;5979;50.800;4.904;2023-03-26T19:51:04;7.20;99.90
11840;DHT22;5979;50.800;4.904;2023-03-26T19:53:35;7.10;99.90
11840;DHT22;5979;50.800;4.904;2023-03-26T19:58:36;7.10;99.90
11840;DHT22;5979;50.800;4.904;2023-03-26T20:01:03;7.00;99.90
11840;DHT22;5979;50.800;4.904;2023-03-26T20:03:38;7.00;99.90
11840;DHT22;5979;50.800;4.904;2023-03-26T20:06:04;7.00;99.90
11840;DHT22;5979;50.800;4.904;2023-03-26T20:08:30;7.00;99.90
11840;DHT22;5979;50.800;4.904;2023-03-26T20:10:56;7.00;99.90
11840;DHT22;5979;50.800;4.904;2023-03-26T20:13:22;7.00;99.90
11840;DHT22;5979;50.800;4.904;2023-03-26T20:16:03;6.90;99.90
11840;DHT22;5979;50.800;4.904;2023-03-26T20:18:30;6.90;99.90
11840;DHT22;5979;50.800;4.904;2023-03-26T20:20:56;6.80;99.90
11840;DHT22;5979;50.800;4.904;2023-03-26T20:23:21;6.80;99.90
11840;DHT22;5979;50.800;4.904;2023-03-26T20:25:50;6.80;99.90
11840;DHT22;5979;50.800;4.904;2023-03-26T20:28:18;6.70;99.90
11840;DHT22;5979;50.800;4.904;2023-03-26T20:30:47;6.70;99.90
11840;DHT22;5979;50.800;4.904;2023-03-26T20:33:22;6.70;99.90
11840;DHT22;5979;50.800;4.904;2023-03-26T20:35:55;6.70;99.90
11840;DHT22;5979;50.800;4.904;2023-03-26T20:38:22;6.60;99.90
11840;DHT22;5979;50.800;4.904;2023-03-26T20:40:50;6.60;99.90
11840;DHT22;5979;50.800;4.904;2023-03-26T20:43:16;6.60;99.90
11840;DHT22;5979;50.800;4.904;2023-03-26T20:45:46;6.60;99.90
11840;DHT22;5979;50.800;4.904;2023-03-26T20:48:13;6.60;99.90
11840;DHT22;5979;50.800;4.904;2023-03-26T20:50:39;6.60;99.90
11840;DHT22;5979;50.800;4.904;2023-03-26T20:53:14;6.50;99.90
11840;DHT22;5979;50.800;4.904;2023-03-26T20:55:42;6.50;99.90
11840;DHT22;5979;50.800;4.904;2023-03-26T20:58:18;6.50;99.90
11840;DHT22;5979;50.800;4.904;2023-03-26T21:00:48;6.40;99.90
11840;DHT22;5979;50.800;4.904;2023-03-26T21:03:17;6.40;99.90
11840;DHT22;5979;50.800;4.904;2023-03-26T21:05:43;6.40;99.90
11840;DHT22;5979;50.800;4.904;2023-03-26T21:08:15;6.40;99.90
11840;DHT22;5979;50.800;4.904;2023-03-26T21:10:42;6.40;99.90
11840;DHT22;5979;50.800;4.904;2023-03-26T21:15:43;6.30;99.90
11840;DHT22;5979;50.800;4.904;2023-03-26T21:18:09;6.30;99.90
11840;DHT22;5979;50.800;4.904;2023-03-26T21:20:35;6.20;99.90
11840;DHT22;5979;50.800;4.904;2023-03-26T21:28:39;6.10;99.90
11840;DHT22;5979;50.800;4.904;2023-03-26T21:31:15;6.10;99.90
11840;DHT22;5979;50.800;4.904;2023-03-26T21:33:45;6.10;99.90
11840;DHT22;5979;50.800;4.904;2023-03-26T21:36:13;6.10;99.90
11840;DHT22;5979;50.800;4.904;2023-03-26T21:38:39;6.10;99.90
11840;DHT22;5979;50.800;4.904;2023-03-26T21:41:15;6.20;99.90
11840;DHT22;5979;50.800;4.904;2023-03-26T21:43:45;6.20;99.90
11840;DHT22;5979;50.800;4.904;2023-03-26T21:46:11;6.20;99.90
11840;DHT22;5979;50.800;4.904;2023-03-26T21:48:37;6.20;99.90
11840;DHT22;5979;50.800;4.904;2023-03-26T21:51:03;6.20;99.90
11840;DHT22;5979;50.800;4.904;2023-03-26T21:53:30;6.20;99.90
11840;DHT22;5979;50.800;4.904;2023-03-26T21:55:58;6.20;99.90
11840;DHT22;5979;50.800;4.904;2023-03-26T21:58:43;6.20;99.90
11840;DHT22;5979;50.800;4.904;2023-03-26T22:01:25;6.20;99.90
11840;DHT22;5979;50.800;4.904;2023-03-26T22:07:31;6.10;99.90
11840;DHT22;5979;50.800;4.904;2023-03-26T22:10:00;6.20;99.90
11840;DHT22;5979;50.800;4.904;2023-03-26T22:12:25;6.10;99.90
11840;DHT22;5979;50.800;4.904;2023-03-26T22:14:51;6.10;99.90
11840;DHT22;5979;50.800;4.904;2023-03-26T22:17:17;6.10;99.90
11840;DHT22;5979;50.800;4.904;2023-03-26T22:19:43;6.10;99.90